sensor_id;sensor_type;location;lat;lon;timestamp;temperature;humidity
15099;DHT22;33900;53.640;9.942;2022-07-11T00:01:45;16.40;84.00
15099;DHT22;33900;53.640;9.942;2022-07-11T00:04:10;16.40;84.10
15099;DHT22;33900;53.640;9.942;2022-07-11T00:06:36;16.30;84.30
15099;DHT22;33900;53.640;9.942;2022-07-11T00:09:02;16.40;84.40
15099;DHT22;33900;53.640;9.942;2022-07-11T00:11:27;16.30;84.40
15099;DHT22;33900;53.640;9.942;2022-07-11T00:13:53;16.30;84.40
15099;DHT22;33900;53.640;9.942;2022-07-11T00:16:18;16.30;84.40
15099;DHT22;33900;53.640;9.942;2022-07-11T00:18:44;16.20;84.60
15099;DHT22;33900;53.640;9.942;2022-07-11T00:21:10;16.20;84.60
15099;DHT22;33900;53.640;9.942;2022-07-11T00:23:36;16.20;84.60
15099;DHT22;33900;53.640;9.942;2022-07-11T00:26:02;16.20;84.70
15099;DHT22;33900;53.640;9.942;2022-07-11T00:28:28;16.20;84.70
15099;DHT22;33900;53.640;9.942;2022-07-11T00:30:53;16.20;84.80
15099;DHT22;33900;53.640;9.942;2022-07-11T00:33:19;16.20;84.80
15099;DHT22;33900;53.640;9.942;2022-07-11T00:35:45;16.20;85.00
15099;DHT22;33900;53.640;9.942;2022-07-11T00:38:10;16.10;84.90
15099;DHT22;33900;53.640;9.942;2022-07-11T00:40:36;16.10;84.90
15099;DHT22;33900;53.640;9.942;2022-07-11T00:43:05;16.10;85.20
15099;DHT22;33900;53.640;9.942;2022-07-11T00:45:31;16.10;85.20
15099;DHT22;33900;53.640;9.942;2022-07-11T00:47:57;16.10;85.30
15099;DHT22;33900;53.640;9.942;2022-07-11T00:50:25;16.00;85.20
15099;DHT22;33900;53.640;9.942;2022-07-11T00:52:52;16.00;85.20
15099;DHT22;33900;53.640;9.942;2022-07-11T00:55:17;15.90;85.30
15099;DHT22;33900;53.640;9.942;2022-07-11T00:57:43;15.90;85.50
15099;DHT22;33900;53.640;9.942;2022-07-11T01:00:09;16.00;85.70
15099;DHT22;33900;53.640;9.942;2022-07-11T01:02:36;15.90;85.60
15099;DHT22;33900;53.640;9.942;2022-07-11T01:05:02;15.90;85.50
15099;DHT22;33900;53.640;9.942;2022-07-11T01:07:29;15.90;85.70
15099;DHT22;33900;53.640;9.942;2022-07-11T01:09:55;15.80;85.70
15099;DHT22;33900;53.640;9.942;2022-07-11T01:12:21;15.80;85.80
15099;DHT22;33900;53.640;9.942;2022-07-11T01:14:50;15.70;85.80
15099;DHT22;33900;53.640;9.942;2022-07-11T01:17:16;15.80;85.90
15099;DHT22;33900;53.640;9.942;2022-07-11T01:19:42;15.70;86.00
15099;DHT22;33900;53.640;9.942;2022-07-11T01:22:07;15.70;86.10
15099;DHT22;33900;53.640;9.942;2022-07-11T01:24:33;15.70;86.10
15099;DHT22;33900;53.640;9.942;2022-07-11T01:26:59;15.70;86.30
15099;DHT22;33900;53.640;9.942;2022-07-11T01:29:25;15.70;86.40
15099;DHT22;33900;53.640;9.942;2022-07-11T01:31:53;15.60;86.40
15099;DHT22;33900;53.640;9.942;2022-07-11T01:34:20;15.60;86.50
15099;DHT22;33900;53.640;9.942;2022-07-11T01:36:45;15.60;86.70
15099;DHT22;33900;53.640;9.942;2022-07-11T01:39:11;15.60;86.60
15099;DHT22;33900;53.640;9.942;2022-07-11T01:41:40;15.50;86.60
15099;DHT22;33900;53.640;9.942;2022-07-11T01:44:06;15.50;86.70
15099;DHT22;33900;53.640;9.942;2022-07-11T01:46:31;15.50;86.80
15099;DHT22;33900;53.640;9.942;2022-07-11T01:48:57;15.50;86.80
15099;DHT22;33900;53.640;9.942;2022-07-11T01:51:23;15.50;87.00
15099;DHT22;33900;53.640;9.942;2022-07-11T01:53:48;15.50;87.10
15099;DHT22;33900;53.640;9.942;2022-07-11T01:56:14;15.50;87.20
15099;DHT22;33900;53.640;9.942;2022-07-11T01:58:40;15.50;87.40
15099;DHT22;33900;53.640;9.942;2022-07-11T02:01:08;15.40;87.40
15099;DHT22;33900;53.640;9.942;2022-07-11T02:03:35;15.40;87.40
15099;DHT22;33900;53.640;9.942;2022-07-11T02:06:02;15.40;87.50
15099;DHT22;33900;53.640;9.942;2022-07-11T02:08:28;15.50;87.70
15099;DHT22;33900;53.640;9.942;2022-07-11T02:10:53;15.50;88.00
15099;DHT22;33900;53.640;9.942;2022-07-11T02:13:22;15.50;88.00
15099;DHT22;33900;53.640;9.942;2022-07-11T02:15:48;15.60;88.00
15099;DHT22;33900;53.640;9.942;2022-07-11T02:18:19;15.60;87.80
15099;DHT22;33900;53.640;9.942;2022-07-11T02:20:45;15.60;87.90
15099;DHT22;33900;53.640;9.942;2022-07-11T02:23:17;15.60;87.90
15099;DHT22;33900;53.640;9.942;2022-07-11T02:25:43;15.60;87.80
15099;DHT22;33900;53.640;9.942;2022-07-11T02:28:09;15.60;87.70
15099;DHT22;33900;53.640;9.942;2022-07-11T02:30:35;15.60;87.80
15099;DHT22;33900;53.640;9.942;2022-07-11T02:33:01;15.50;87.70
15099;DHT22;33900;53.640;9.942;2022-07-11T02:35:27;15.50;87.70
15099;DHT22;33900;53.640;9.942;2022-07-11T02:37:53;15.50;87.70
15099;DHT22;33900;53.640;9.942;2022-07-11T02:40:18;15.50;87.80
15099;DHT22;33900;53.640;9.942;2022-07-11T02:42:44;15.50;87.60
15099;DHT22;33900;53.640;9.942;2022-07-11T02:45:10;15.50;87.60
15099;DHT22;33900;53.640;9.942;2022-07-11T02:47:39;15.50;87.70
15099;DHT22;33900;53.640;9.942;2022-07-11T02:53:36;15.40;87.70
15099;DHT22;33900;53.640;9.942;2022-07-11T02:56:02;15.40;87.70
15099;DHT22;33900;53.640;9.942;2022-07-11T02:58:28;15.40;87.90
15099;DHT22;33900;53.640;9.942;2022-07-11T03:00:53;15.40;87.80
15099;DHT22;33900;53.640;9.942;2022-07-11T03:03:19;15.40;87.90
15099;DHT22;33900;53.640;9.942;2022-07-11T03:05:46;15.30;87.80
15099;DHT22;33900;53.640;9.942;2022-07-11T03:08:11;15.30;87.90
15099;DHT22;33900;53.640;9.942;2022-07-11T03:10:37;15.30;87.90
15099;DHT22;33900;53.640;9.942;2022-07-11T03:13:04;15.30;88.00
15099;DHT22;33900;53.640;9.942;2022-07-11T03:15:29;15.20;88.00
15099;DHT22;33900;53.640;9.942;2022-07-11T03:17:55;15.30;88.10
15099;DHT22;33900;53.640;9.942;2022-07-11T03:20:21;15.20;88.10
15099;DHT22;33900;53.640;9.942;2022-07-11T03:22:46;15.20;88.20
15099;DHT22;33900;53.640;9.942;2022-07-11T03:25:12;15.20;88.20
15099;DHT22;33900;53.640;9.942;2022-07-11T03:27:38;15.20;88.10
15099;DHT22;33900;53.640;9.942;2022-07-11T03:30:03;15.20;88.10
15099;DHT22;33900;53.640;9.942;2022-07-11T03:32:29;15.20;88.30
15099;DHT22;33900;53.640;9.942;2022-07-11T03:34:55;15.20;89.30
15099;DHT22;33900;53.640;9.942;2022-07-11T03:37:40;15.20;88.40
15099;DHT22;33900;53.640;9.942;2022-07-11T03:40:06;15.20;88.30
15099;DHT22;33900;53.640;9.942;2022-07-11T03:42:31;15.20;88.40
15099;DHT22;33900;53.640;9.942;2022-07-11T03:44:57;15.20;88.60
15099;DHT22;33900;53.640;9.942;2022-07-11T03:47:23;15.20;88.90
15099;DHT22;33900;53.640;9.942;2022-07-11T03:49:49;15.20;88.90
15099;DHT22;33900;53.640;9.942;2022-07-11T03:52:14;15.20;88.90
15099;DHT22;33900;53.640;9.942;2022-07-11T03:54:40;15.20;89.00
15099;DHT22;33900;53.640;9.942;2022-07-11T03:57:06;15.20;89.10
15099;DHT22;33900;53.640;9.942;2022-07-11T03:59:32;15.20;89.30
15099;DHT22;33900;53.640;9.942;2022-07-11T04:01:58;15.20;89.30
15099;DHT22;33900;53.640;9.942;2022-07-11T04:04:24;15.20;89.30
15099;DHT22;33900;53.640;9.942;2022-07-11T04:06:50;15.20;89.40
15099;DHT22;33900;53.640;9.942;2022-07-11T04:09:18;15.20;89.40
15099;DHT22;33900;53.640;9.942;2022-07-11T04:11:44;15.30;89.40
15099;DHT22;33900;53.640;9.942;2022-07-11T04:14:10;15.20;89.60
15099;DHT22;33900;53.640;9.942;2022-07-11T04:16:35;15.30;89.70
15099;DHT22;33900;53.640;9.942;2022-07-11T04:19:01;15.30;89.80
15099;DHT22;33900;53.640;9.942;2022-07-11T04:21:30;15.30;90.00
15099;DHT22;33900;53.640;9.942;2022-07-11T04:23:55;15.30;90.00
15099;DHT22;33900;53.640;9.942;2022-07-11T04:26:21;15.30;90.00
15099;DHT22;33900;53.640;9.942;2022-07-11T04:28:47;15.30;90.10
15099;DHT22;33900;53.640;9.942;2022-07-11T04:31:15;15.40;90.10
15099;DHT22;33900;53.640;9.942;2022-07-11T04:33:41;15.40;90.20
15099;DHT22;33900;53.640;9.942;2022-07-11T04:36:16;15.40;90.20
15099;DHT22;33900;53.640;9.942;2022-07-11T04:38:42;15.50;90.30
15099;DHT22;33900;53.640;9.942;2022-07-11T04:41:12;15.50;90.30
15099;DHT22;33900;53.640;9.942;2022-07-11T04:43:38;15.50;90.40
15099;DHT22;33900;53.640;9.942;2022-07-11T04:46:03;15.60;90.40
15099;DHT22;33900;53.640;9.942;2022-07-11T04:48:58;15.60;90.40
15099;DHT22;33900;53.640;9.942;2022-07-11T04:51:24;15.70;90.50
15099;DHT22;33900;53.640;9.942;2022-07-11T04:53:50;15.70;90.50
15099;DHT22;33900;53.640;9.942;2022-07-11T04:56:16;15.80;90.50
15099;DHT22;33900;53.640;9.942;2022-07-11T04:58:42;15.80;90.50
15099;DHT22;33900;53.640;9.942;2022-07-11T05:01:23;15.90;90.60
15099;DHT22;33900;53.640;9.942;2022-07-11T05:03:48;15.90;90.60
15099;DHT22;33900;53.640;9.942;2022-07-11T05:09:14;16.00;90.60
15099;DHT22;33900;53.640;9.942;2022-07-11T05:11:39;16.00;90.60
15099;DHT22;33900;53.640;9.942;2022-07-11T05:14:05;16.10;90.60
15099;DHT22;33900;53.640;9.942;2022-07-11T05:16:31;16.10;90.60
15099;DHT22;33900;53.640;9.942;2022-07-11T05:19:02;16.20;90.60
15099;DHT22;33900;53.640;9.942;2022-07-11T05:21:33;16.20;90.60
15099;DHT22;33900;53.640;9.942;2022-07-11T05:24:05;16.30;90.60
15099;DHT22;33900;53.640;9.942;2022-07-11T05:26:31;16.30;90.60
15099;DHT22;33900;53.640;9.942;2022-07-11T05:32:25;16.40;90.70
15099;DHT22;33900;53.640;9.942;2022-07-11T05:34:51;16.40;90.70
15099;DHT22;33900;53.640;9.942;2022-07-11T05:37:17;16.40;90.60
15099;DHT22;33900;53.640;9.942;2022-07-11T05:39:42;16.50;90.60
15099;DHT22;33900;53.640;9.942;2022-07-11T05:42:14;16.50;90.90
15099;DHT22;33900;53.640;9.942;2022-07-11T05:44:40;16.50;90.60
15099;DHT22;33900;53.640;9.942;2022-07-11T05:47:06;16.60;90.60
15099;DHT22;33900;53.640;9.942;2022-07-11T05:49:31;16.60;90.60
15099;DHT22;33900;53.640;9.942;2022-07-11T05:51:57;16.70;90.60
15099;DHT22;33900;53.640;9.942;2022-07-11T05:54:22;16.70;90.60
15099;DHT22;33900;53.640;9.942;2022-07-11T05:56:48;16.70;90.60
15099;DHT22;33900;53.640;9.942;2022-07-11T05:59:13;16.80;90.60
15099;DHT22;33900;53.640;9.942;2022-07-11T06:01:39;16.80;90.50
15099;DHT22;33900;53.640;9.942;2022-07-11T06:04:05;16.90;90.50
15099;DHT22;33900;53.640;9.942;2022-07-11T06:06:30;16.90;90.60
15099;DHT22;33900;53.640;9.942;2022-07-11T06:09:02;16.90;90.50
15099;DHT22;33900;53.640;9.942;2022-07-11T06:11:27;17.00;90.40
15099;DHT22;33900;53.640;9.942;2022-07-11T06:13:53;17.00;90.30
15099;DHT22;33900;53.640;9.942;2022-07-11T06:16:19;17.10;90.20
15099;DHT22;33900;53.640;9.942;2022-07-11T06:18:44;17.10;90.20
15099;DHT22;33900;53.640;9.942;2022-07-11T06:21:10;17.10;90.20
15099;DHT22;33900;53.640;9.942;2022-07-11T06:23:45;17.10;90.20
15099;DHT22;33900;53.640;9.942;2022-07-11T06:26:26;17.30;90.00
15099;DHT22;33900;53.640;9.942;2022-07-11T06:28:52;17.30;90.00
15099;DHT22;33900;53.640;9.942;2022-07-11T06:31:17;17.40;90.00
15099;DHT22;33900;53.640;9.942;2022-07-11T06:33:52;17.40;89.70
15099;DHT22;33900;53.640;9.942;2022-07-11T06:42:49;17.60;89.10
15099;DHT22;33900;53.640;9.942;2022-07-11T06:45:17;17.60;88.90
15099;DHT22;33900;53.640;9.942;2022-07-11T06:47:45;17.70;89.10
15099;DHT22;33900;53.640;9.942;2022-07-11T06:50:12;17.70;88.60
15099;DHT22;33900;53.640;9.942;2022-07-11T06:52:44;17.80;88.50
15099;DHT22;33900;53.640;9.942;2022-07-11T06:55:14;17.90;88.40
15099;DHT22;33900;53.640;9.942;2022-07-11T06:57:40;17.90;88.20
15099;DHT22;33900;53.640;9.942;2022-07-11T07:00:06;17.90;88.00
15099;DHT22;33900;53.640;9.942;2022-07-11T07:02:33;18.00;87.70
15099;DHT22;33900;53.640;9.942;2022-07-11T07:04:59;18.00;87.40
15099;DHT22;33900;53.640;9.942;2022-07-11T07:07:25;18.00;87.20
15099;DHT22;33900;53.640;9.942;2022-07-11T07:09:51;18.10;87.30
15099;DHT22;33900;53.640;9.942;2022-07-11T07:12:16;18.10;87.20
15099;DHT22;33900;53.640;9.942;2022-07-11T07:14:42;18.20;87.20
15099;DHT22;33900;53.640;9.942;2022-07-11T07:17:07;18.30;87.20
15099;DHT22;33900;53.640;9.942;2022-07-11T07:19:33;18.30;87.00
15099;DHT22;33900;53.640;9.942;2022-07-11T07:21:58;18.40;86.90
15099;DHT22;33900;53.640;9.942;2022-07-11T07:24:24;18.40;86.70
15099;DHT22;33900;53.640;9.942;2022-07-11T07:26:50;18.50;86.60
15099;DHT22;33900;53.640;9.942;2022-07-11T07:29:15;18.50;86.40
15099;DHT22;33900;53.640;9.942;2022-07-11T07:31:41;18.60;86.20
15099;DHT22;33900;53.640;9.942;2022-07-11T07:34:06;18.60;86.10
15099;DHT22;33900;53.640;9.942;2022-07-11T07:36:34;18.60;86.00
15099;DHT22;33900;53.640;9.942;2022-07-11T07:39:06;18.70;86.00
15099;DHT22;33900;53.640;9.942;2022-07-11T07:41:34;18.80;85.90
15099;DHT22;33900;53.640;9.942;2022-07-11T07:44:00;18.80;85.60
15099;DHT22;33900;53.640;9.942;2022-07-11T07:46:25;18.90;85.30
15099;DHT22;33900;53.640;9.942;2022-07-11T07:48:51;18.90;85.30
15099;DHT22;33900;53.640;9.942;2022-07-11T07:51:16;19.00;85.40
15099;DHT22;33900;53.640;9.942;2022-07-11T07:53:45;19.00;85.30
15099;DHT22;33900;53.640;9.942;2022-07-11T07:56:10;19.10;85.20
15099;DHT22;33900;53.640;9.942;2022-07-11T07:58:36;19.20;85.20
15099;DHT22;33900;53.640;9.942;2022-07-11T08:01:03;19.30;85.00
15099;DHT22;33900;53.640;9.942;2022-07-11T08:04:08;19.30;84.70
15099;DHT22;33900;53.640;9.942;2022-07-11T08:10:06;19.30;83.60
15099;DHT22;33900;53.640;9.942;2022-07-11T08:12:32;19.40;83.60
15099;DHT22;33900;53.640;9.942;2022-07-11T08:14:58;19.40;83.20
15099;DHT22;33900;53.640;9.942;2022-07-11T08:17:23;19.40;83.10
15099;DHT22;33900;53.640;9.942;2022-07-11T08:19:49;19.50;83.40
15099;DHT22;33900;53.640;9.942;2022-07-11T08:22:15;19.50;83.30
15099;DHT22;33900;53.640;9.942;2022-07-11T08:24:40;19.60;83.20
15099;DHT22;33900;53.640;9.942;2022-07-11T08:27:06;19.70;82.90
15099;DHT22;33900;53.640;9.942;2022-07-11T08:29:31;19.80;82.20
15099;DHT22;33900;53.640;9.942;2022-07-11T08:31:57;19.80;81.90
15099;DHT22;33900;53.640;9.942;2022-07-11T08:34:22;19.80;81.70
15099;DHT22;33900;53.640;9.942;2022-07-11T08:36:48;19.80;81.80
15099;DHT22;33900;53.640;9.942;2022-07-11T08:39:16;19.90;81.50
15099;DHT22;33900;53.640;9.942;2022-07-11T08:41:42;20.00;81.30
15099;DHT22;33900;53.640;9.942;2022-07-11T08:44:08;20.10;81.20
15099;DHT22;33900;53.640;9.942;2022-07-11T08:46:33;20.10;81.50
15099;DHT22;33900;53.640;9.942;2022-07-11T08:48:59;20.20;81.30
15099;DHT22;33900;53.640;9.942;2022-07-11T08:51:24;20.30;80.80
15099;DHT22;33900;53.640;9.942;2022-07-11T08:53:52;20.40;81.00
15099;DHT22;33900;53.640;9.942;2022-07-11T08:56:18;20.60;81.00
15099;DHT22;33900;53.640;9.942;2022-07-11T08:58:45;20.70;80.90
15099;DHT22;33900;53.640;9.942;2022-07-11T09:01:12;20.90;81.20
15099;DHT22;33900;53.640;9.942;2022-07-11T09:03:40;21.00;81.00
15099;DHT22;33900;53.640;9.942;2022-07-11T09:06:06;21.10;80.50
15099;DHT22;33900;53.640;9.942;2022-07-11T09:08:32;21.20;78.90
15099;DHT22;33900;53.640;9.942;2022-07-11T09:10:58;21.20;79.20
15099;DHT22;33900;53.640;9.942;2022-07-11T09:13:27;21.40;79.30
15099;DHT22;33900;53.640;9.942;2022-07-11T09:15:54;21.40;78.70
15099;DHT22;33900;53.640;9.942;2022-07-11T09:18:38;21.50;77.90
15099;DHT22;33900;53.640;9.942;2022-07-11T09:21:08;21.50;77.50
15099;DHT22;33900;53.640;9.942;2022-07-11T09:23:56;21.60;77.30
15099;DHT22;33900;53.640;9.942;2022-07-11T09:27:09;21.60;77.70
15099;DHT22;33900;53.640;9.942;2022-07-11T09:29:36;21.70;78.30
15099;DHT22;33900;53.640;9.942;2022-07-11T09:32:02;21.70;78.40
15099;DHT22;33900;53.640;9.942;2022-07-11T09:34:29;21.70;77.00
15099;DHT22;33900;53.640;9.942;2022-07-11T09:36:56;21.70;76.70
15099;DHT22;33900;53.640;9.942;2022-07-11T09:39:26;21.70;76.60
15099;DHT22;33900;53.640;9.942;2022-07-11T09:45:22;21.70;76.50
15099;DHT22;33900;53.640;9.942;2022-07-11T09:50:56;21.60;76.30
15099;DHT22;33900;53.640;9.942;2022-07-11T09:53:26;21.60;75.90
15099;DHT22;33900;53.640;9.942;2022-07-11T09:55:52;21.50;75.80
15099;DHT22;33900;53.640;9.942;2022-07-11T09:58:18;21.50;76.10
15099;DHT22;33900;53.640;9.942;2022-07-11T10:00:50;21.50;76.10
15099;DHT22;33900;53.640;9.942;2022-07-11T10:03:18;21.40;75.90
15099;DHT22;33900;53.640;9.942;2022-07-11T10:05:45;21.40;76.00
15099;DHT22;33900;53.640;9.942;2022-07-11T10:08:11;21.40;76.00
15099;DHT22;33900;53.640;9.942;2022-07-11T10:10:38;21.40;76.30
15099;DHT22;33900;53.640;9.942;2022-07-11T10:13:04;21.40;76.50
15099;DHT22;33900;53.640;9.942;2022-07-11T10:15:31;21.40;76.40
15099;DHT22;33900;53.640;9.942;2022-07-11T10:30:46;21.30;75.60
15099;DHT22;33900;53.640;9.942;2022-07-11T10:33:12;21.30;75.70
15099;DHT22;33900;53.640;9.942;2022-07-11T10:35:42;21.30;75.20
15099;DHT22;33900;53.640;9.942;2022-07-11T10:38:08;21.30;75.30
15099;DHT22;33900;53.640;9.942;2022-07-11T10:46:01;21.20;74.60
15099;DHT22;33900;53.640;9.942;2022-07-11T10:54:05;21.20;74.30
15099;DHT22;33900;53.640;9.942;2022-07-11T10:59:18;21.20;74.50
15099;DHT22;33900;53.640;9.942;2022-07-11T11:04:50;21.30;74.20
15099;DHT22;33900;53.640;9.942;2022-07-11T11:07:38;21.40;74.20
15099;DHT22;33900;53.640;9.942;2022-07-11T11:10:43;21.40;73.70
15099;DHT22;33900;53.640;9.942;2022-07-11T11:20:46;21.40;72.50
15099;DHT22;33900;53.640;9.942;2022-07-11T11:23:11;21.50;72.90
15099;DHT22;33900;53.640;9.942;2022-07-11T11:25:41;21.50;73.20
15099;DHT22;33900;53.640;9.942;2022-07-11T11:28:10;21.60;73.10
15099;DHT22;33900;53.640;9.942;2022-07-11T11:30:52;21.60;73.40
15099;DHT22;33900;53.640;9.942;2022-07-11T11:33:18;21.60;73.10
15099;DHT22;33900;53.640;9.942;2022-07-11T11:35:44;21.70;72.50
15099;DHT22;33900;53.640;9.942;2022-07-11T11:38:10;21.70;72.40
15099;DHT22;33900;53.640;9.942;2022-07-11T11:40:36;21.70;72.10
15099;DHT22;33900;53.640;9.942;2022-07-11T11:43:17;21.70;72.10
15099;DHT22;33900;53.640;9.942;2022-07-11T11:45:46;21.70;72.40
15099;DHT22;33900;53.640;9.942;2022-07-11T11:48:16;21.80;72.80
15099;DHT22;33900;53.640;9.942;2022-07-11T11:50:50;21.80;72.70
15099;DHT22;33900;53.640;9.942;2022-07-11T11:53:16;22.00;72.80
15099;DHT22;33900;53.640;9.942;2022-07-11T11:55:42;22.00;72.40
15099;DHT22;33900;53.640;9.942;2022-07-11T11:58:08;22.20;71.40
15099;DHT22;33900;53.640;9.942;2022-07-11T12:00:33;22.30;71.70
15099;DHT22;33900;53.640;9.942;2022-07-11T12:02:59;22.50;72.10
15099;DHT22;33900;53.640;9.942;2022-07-11T12:05:24;22.60;71.90
15099;DHT22;33900;53.640;9.942;2022-07-11T12:07:50;22.70;72.10
15099;DHT22;33900;53.640;9.942;2022-07-11T12:10:15;22.90;70.90
15099;DHT22;33900;53.640;9.942;2022-07-11T12:12:41;23.00;70.00
15099;DHT22;33900;53.640;9.942;2022-07-11T12:15:24;23.10;70.00
15099;DHT22;33900;53.640;9.942;2022-07-11T12:17:57;23.30;69.90
15099;DHT22;33900;53.640;9.942;2022-07-11T12:20:38;23.50;69.40
15099;DHT22;33900;53.640;9.942;2022-07-11T12:23:08;23.60;69.10
15099;DHT22;33900;53.640;9.942;2022-07-11T12:25:34;23.70;69.00
15099;DHT22;33900;53.640;9.942;2022-07-11T12:27:59;23.80;68.10
15099;DHT22;33900;53.640;9.942;2022-07-11T12:30:25;23.90;67.40
15099;DHT22;33900;53.640;9.942;2022-07-11T12:33:02;23.90;65.80
15099;DHT22;33900;53.640;9.942;2022-07-11T12:35:28;23.90;65.80
15099;DHT22;33900;53.640;9.942;2022-07-11T12:37:54;24.00;65.30
15099;DHT22;33900;53.640;9.942;2022-07-11T12:40:20;24.20;65.20
15099;DHT22;33900;53.640;9.942;2022-07-11T12:42:46;24.20;63.50
15099;DHT22;33900;53.640;9.942;2022-07-11T12:45:13;24.30;62.90
15099;DHT22;33900;53.640;9.942;2022-07-11T12:47:39;24.40;62.00
15099;DHT22;33900;53.640;9.942;2022-07-11T12:50:12;24.50;61.40
15099;DHT22;33900;53.640;9.942;2022-07-11T12:52:42;24.50;61.30
15099;DHT22;33900;53.640;9.942;2022-07-11T12:55:11;24.60;62.00
15099;DHT22;33900;53.640;9.942;2022-07-11T12:57:40;24.60;60.90
15099;DHT22;33900;53.640;9.942;2022-07-11T13:03:02;24.60;61.50
15099;DHT22;33900;53.640;9.942;2022-07-11T13:05:28;24.70;60.70
15099;DHT22;33900;53.640;9.942;2022-07-11T13:07:53;24.70;60.30
15099;DHT22;33900;53.640;9.942;2022-07-11T13:10:37;24.70;60.30
15099;DHT22;33900;53.640;9.942;2022-07-11T13:13:26;24.80;61.00
15099;DHT22;33900;53.640;9.942;2022-07-11T13:15:52;24.70;61.00
15099;DHT22;33900;53.640;9.942;2022-07-11T13:18:19;24.70;61.20
15099;DHT22;33900;53.640;9.942;2022-07-11T13:20:44;24.60;60.90
15099;DHT22;33900;53.640;9.942;2022-07-11T13:23:10;24.60;61.30
15099;DHT22;33900;53.640;9.942;2022-07-11T13:25:36;24.50;61.80
15099;DHT22;33900;53.640;9.942;2022-07-11T13:28:02;24.50;61.50
15099;DHT22;33900;53.640;9.942;2022-07-11T13:30:27;24.40;62.00
15099;DHT22;33900;53.640;9.942;2022-07-11T13:32:55;24.40;62.50
15099;DHT22;33900;53.640;9.942;2022-07-11T13:35:21;24.30;61.60
15099;DHT22;33900;53.640;9.942;2022-07-11T13:37:46;24.20;62.40
15099;DHT22;33900;53.640;9.942;2022-07-11T13:40:17;24.10;63.10
15099;DHT22;33900;53.640;9.942;2022-07-11T13:42:43;24.10;63.40
15099;DHT22;33900;53.640;9.942;2022-07-11T13:45:22;24.00;64.40
15099;DHT22;33900;53.640;9.942;2022-07-11T13:50:49;24.10;65.50
15099;DHT22;33900;53.640;9.942;2022-07-11T13:53:15;24.20;65.80
15099;DHT22;33900;53.640;9.942;2022-07-11T13:55:59;24.20;65.20
15099;DHT22;33900;53.640;9.942;2022-07-11T13:58:24;24.20;65.60
15099;DHT22;33900;53.640;9.942;2022-07-11T14:00:50;24.30;65.70
15099;DHT22;33900;53.640;9.942;2022-07-11T14:03:16;24.40;66.20
15099;DHT22;33900;53.640;9.942;2022-07-11T14:05:42;24.40;66.10
15099;DHT22;33900;53.640;9.942;2022-07-11T14:08:07;24.40;65.20
15099;DHT22;33900;53.640;9.942;2022-07-11T14:10:33;24.40;65.00
15099;DHT22;33900;53.640;9.942;2022-07-11T14:12:59;24.40;64.40
15099;DHT22;33900;53.640;9.942;2022-07-11T14:15:24;24.30;64.70
15099;DHT22;33900;53.640;9.942;2022-07-11T14:17:51;24.30;65.50
15099;DHT22;33900;53.640;9.942;2022-07-11T14:20:19;24.40;65.70
15099;DHT22;33900;53.640;9.942;2022-07-11T14:22:45;24.40;65.30
15099;DHT22;33900;53.640;9.942;2022-07-11T14:25:10;24.30;65.10
15099;DHT22;33900;53.640;9.942;2022-07-11T14:27:36;24.30;65.50
15099;DHT22;33900;53.640;9.942;2022-07-11T14:30:04;24.30;65.90
15099;DHT22;33900;53.640;9.942;2022-07-11T14:32:30;24.40;65.70
15099;DHT22;33900;53.640;9.942;2022-07-11T14:34:55;24.40;64.50
15099;DHT22;33900;53.640;9.942;2022-07-11T14:37:21;24.40;64.80
15099;DHT22;33900;53.640;9.942;2022-07-11T14:39:46;24.30;64.80
15099;DHT22;33900;53.640;9.942;2022-07-11T14:42:12;24.30;65.10
15099;DHT22;33900;53.640;9.942;2022-07-11T14:44:38;24.30;65.10
15099;DHT22;33900;53.640;9.942;2022-07-11T14:47:03;24.30;65.10
15099;DHT22;33900;53.640;9.942;2022-07-11T14:49:29;24.20;65.10
15099;DHT22;33900;53.640;9.942;2022-07-11T14:51:54;24.20;65.50
15099;DHT22;33900;53.640;9.942;2022-07-11T14:54:21;24.20;65.80
15099;DHT22;33900;53.640;9.942;2022-07-11T14:56:47;24.30;65.60
15099;DHT22;33900;53.640;9.942;2022-07-11T14:59:12;24.30;65.70
15099;DHT22;33900;53.640;9.942;2022-07-11T15:01:38;24.40;65.90
15099;DHT22;33900;53.640;9.942;2022-07-11T15:04:04;24.40;66.00
15099;DHT22;33900;53.640;9.942;2022-07-11T15:06:29;24.40;65.90
15099;DHT22;33900;53.640;9.942;2022-07-11T15:09:13;24.40;66.00
15099;DHT22;33900;53.640;9.942;2022-07-11T15:11:58;24.40;66.10
15099;DHT22;33900;53.640;9.942;2022-07-11T15:14:42;24.30;65.70
15099;DHT22;33900;53.640;9.942;2022-07-11T15:17:08;24.30;66.10
15099;DHT22;33900;53.640;9.942;2022-07-11T15:19:34;24.30;66.10
15099;DHT22;33900;53.640;9.942;2022-07-11T15:22:00;24.40;65.50
15099;DHT22;33900;53.640;9.942;2022-07-11T15:24:26;24.40;65.50
15099;DHT22;33900;53.640;9.942;2022-07-11T15:26:52;24.40;65.30
15099;DHT22;33900;53.640;9.942;2022-07-11T15:29:18;24.40;64.40
15099;DHT22;33900;53.640;9.942;2022-07-11T15:31:44;24.30;64.60
15099;DHT22;33900;53.640;9.942;2022-07-11T15:34:11;24.30;64.70
15099;DHT22;33900;53.640;9.942;2022-07-11T15:36:37;24.30;65.30
15099;DHT22;33900;53.640;9.942;2022-07-11T15:39:03;24.30;65.70
15099;DHT22;33900;53.640;9.942;2022-07-11T15:41:28;24.40;65.40
15099;DHT22;33900;53.640;9.942;2022-07-11T15:43:54;24.40;65.50
15099;DHT22;33900;53.640;9.942;2022-07-11T15:46:25;24.50;64.80
15099;DHT22;33900;53.640;9.942;2022-07-11T15:52:20;24.60;65.60
15099;DHT22;33900;53.640;9.942;2022-07-11T15:54:46;24.70;65.00
15099;DHT22;33900;53.640;9.942;2022-07-11T15:57:11;24.70;64.90
15099;DHT22;33900;53.640;9.942;2022-07-11T15:59:37;24.80;64.80
15099;DHT22;33900;53.640;9.942;2022-07-11T16:02:06;24.80;64.20
15099;DHT22;33900;53.640;9.942;2022-07-11T16:04:46;24.70;64.20
15099;DHT22;33900;53.640;9.942;2022-07-11T16:07:26;24.80;64.80
15099;DHT22;33900;53.640;9.942;2022-07-11T16:16:49;24.90;65.00
15099;DHT22;33900;53.640;9.942;2022-07-11T16:19:15;24.90;64.30
15099;DHT22;33900;53.640;9.942;2022-07-11T16:21:42;24.90;64.30
15099;DHT22;33900;53.640;9.942;2022-07-11T16:24:09;25.00;64.40
15099;DHT22;33900;53.640;9.942;2022-07-11T16:26:35;24.90;64.10
15099;DHT22;33900;53.640;9.942;2022-07-11T16:29:01;24.90;63.20
15099;DHT22;33900;53.640;9.942;2022-07-11T16:31:39;24.90;63.20
15099;DHT22;33900;53.640;9.942;2022-07-11T16:34:04;24.90;63.10
15099;DHT22;33900;53.640;9.942;2022-07-11T16:36:31;24.80;63.40
15099;DHT22;33900;53.640;9.942;2022-07-11T16:38:57;24.80;63.60
15099;DHT22;33900;53.640;9.942;2022-07-11T16:41:41;24.70;63.10
15099;DHT22;33900;53.640;9.942;2022-07-11T16:44:25;24.70;63.50
15099;DHT22;33900;53.640;9.942;2022-07-11T16:46:51;24.60;63.60
15099;DHT22;33900;53.640;9.942;2022-07-11T16:49:16;24.60;63.70
15099;DHT22;33900;53.640;9.942;2022-07-11T16:51:42;24.50;64.00
15099;DHT22;33900;53.640;9.942;2022-07-11T16:54:17;24.50;64.30